createdAt,value
2018-08-23T00:02:15.664Z,21.90
2018-08-23T00:04:43.771Z,21.90
2018-08-23T00:07:15.377Z,21.79
2018-08-23T00:09:44.166Z,21.73
2018-08-23T00:12:12.239Z,21.68
2018-08-23T00:14:40.339Z,21.74
2018-08-23T00:17:08.399Z,21.78
2018-08-23T00:19:36.467Z,21.81
2018-08-23T00:22:04.531Z,21.75
2018-08-23T00:24:32.614Z,21.63
2018-08-23T00:27:00.698Z,21.56
2018-08-23T00:29:31.039Z,21.51
2018-08-23T00:32:03.482Z,21.48
2018-08-23T00:34:33.770Z,21.52
2018-08-23T00:37:02.658Z,21.52
2018-08-23T00:39:30.887Z,21.53
2018-08-23T00:42:09.240Z,21.52
2018-08-23T00:44:54.128Z,21.34
2018-08-23T00:47:24.120Z,21.40
2018-08-23T00:49:52.228Z,21.38
2018-08-23T00:52:27.528Z,21.21
2018-08-23T00:54:56.563Z,21.20
2018-08-23T00:57:24.635Z,21.21
2018-08-23T00:59:56.886Z,21.12
2018-08-23T01:02:24.948Z,21.19
2018-08-23T01:04:53.029Z,21.20
2018-08-23T01:07:23.347Z,20.99
2018-08-23T01:09:51.416Z,20.87
2018-08-23T01:12:20.242Z,20.94
2018-08-23T01:14:49.863Z,20.98
2018-08-23T01:17:18.860Z,20.99
2018-08-23T01:19:52.385Z,21.03
2018-08-23T01:22:20.476Z,20.97
2018-08-23T01:24:49.715Z,20.97
2018-08-23T01:27:51.464Z,20.94
2018-08-23T01:30:20.192Z,20.92
2018-08-23T01:32:48.285Z,20.87
2018-08-23T01:35:16.369Z,20.85
2018-08-23T01:37:44.456Z,20.75
2018-08-23T01:40:12.534Z,20.69
2018-08-23T01:42:41.635Z,20.71
2018-08-23T01:45:11.004Z,20.72
2018-08-23T01:47:43.394Z,20.63
2018-08-23T01:50:12.203Z,20.60
2018-08-23T01:52:45.278Z,20.62
2018-08-23T01:55:14.209Z,20.58
2018-08-23T01:57:42.330Z,20.57
2018-08-23T02:00:11.152Z,20.59
2018-08-23T02:02:39.266Z,20.54
2018-08-23T02:05:07.704Z,20.35
2018-08-23T02:07:35.822Z,20.40
2018-08-23T02:10:04.111Z,20.41
2018-08-23T02:12:32.175Z,20.48
2018-08-23T02:15:01.207Z,20.20
2018-08-23T02:17:33.715Z,20.12
2018-08-23T02:20:01.891Z,19.96
2018-08-23T02:22:30.063Z,20.06
2018-08-23T02:24:58.125Z,20.15
2018-08-23T02:27:26.237Z,20.17
2018-08-23T02:29:54.385Z,20.17
2018-08-23T02:32:22.487Z,20.09
2018-08-23T02:34:50.620Z,19.88
2018-08-23T02:37:18.908Z,19.73
2018-08-23T02:39:47.402Z,19.89
2018-08-23T02:42:18.435Z,19.92
2018-08-23T02:44:47.227Z,19.91
2018-08-23T02:47:16.177Z,19.97
2018-08-23T02:49:44.420Z,19.93
2018-08-23T02:52:12.527Z,19.91
2018-08-23T02:54:40.620Z,19.94
2018-08-23T02:57:10.091Z,19.83
2018-08-23T02:59:38.320Z,19.75
2018-08-23T03:02:12.334Z,19.76
2018-08-23T03:04:40.496Z,19.73
2018-08-23T03:07:08.595Z,19.63
2018-08-23T03:09:37.776Z,19.67
2018-08-23T03:12:24.351Z,19.68
2018-08-23T03:14:52.424Z,19.53
2018-08-23T03:17:35.788Z,19.56
2018-08-23T03:20:14.055Z,19.67
2018-08-23T03:22:43.048Z,19.61
2018-08-23T03:25:12.351Z,19.59
2018-08-23T03:27:40.432Z,19.61
2018-08-23T03:30:09.548Z,19.68
2018-08-23T03:32:37.675Z,19.64
2018-08-23T03:35:05.809Z,19.56
2018-08-23T03:37:33.936Z,19.39
2018-08-23T03:40:02.023Z,19.30
2018-08-23T03:42:30.112Z,19.24
2018-08-23T03:44:58.999Z,19.15
2018-08-23T03:47:27.651Z,19.08
2018-08-23T03:49:55.769Z,18.98
2018-08-23T03:52:28.089Z,18.97
2018-08-23T03:55:01.308Z,19.03
2018-08-23T03:57:34.651Z,19.08
2018-08-23T04:00:02.919Z,19.07
2018-08-23T04:02:31.012Z,19.18
2018-08-23T04:05:04.920Z,19.12
2018-08-23T04:07:33.027Z,19.13
2018-08-23T04:10:01.156Z,19.04
2018-08-23T04:12:29.347Z,18.93
2018-08-23T04:15:11.778Z,18.91
2018-08-23T04:17:39.867Z,18.87
2018-08-23T04:20:08.073Z,18.98
2018-08-23T04:22:36.248Z,19.00
2018-08-23T04:25:04.685Z,18.80
2018-08-23T04:27:32.832Z,18.65
2018-08-23T04:30:00.962Z,18.53
2018-08-23T04:32:34.319Z,18.48
2018-08-23T04:35:02.477Z,18.46
2018-08-23T04:37:31.075Z,18.53
2018-08-23T04:40:03.121Z,18.58
2018-08-23T04:42:31.276Z,18.50
2018-08-23T04:45:07.578Z,18.49
2018-08-23T04:47:35.678Z,18.55
2018-08-23T04:50:03.791Z,18.61
2018-08-23T04:52:31.866Z,18.78
2018-08-23T04:54:59.956Z,18.84
2018-08-23T04:57:28.055Z,18.91
2018-08-23T04:59:56.174Z,18.78
2018-08-23T05:02:24.248Z,18.77
2018-08-23T05:04:52.317Z,18.71
2018-08-23T05:07:20.448Z,18.82
2018-08-23T05:09:48.621Z,18.77
2018-08-23T05:12:16.824Z,18.87
2018-08-23T05:14:45.064Z,18.88
2018-08-23T05:17:13.228Z,18.89
2018-08-23T05:19:41.332Z,18.91
2018-08-23T05:22:09.424Z,19.00
2018-08-23T05:24:37.537Z,18.98
2018-08-23T05:27:06.059Z,19.09
2018-08-23T05:29:34.372Z,19.15
2018-08-23T05:32:02.477Z,19.22
2018-08-23T05:34:30.571Z,19.23
2018-08-23T05:36:58.692Z,19.23
2018-08-23T05:39:39.739Z,19.32
2018-08-23T05:42:07.868Z,19.36
2018-08-23T05:44:35.991Z,19.47
2018-08-23T05:47:04.144Z,19.54
2018-08-23T05:49:32.262Z,19.58
2018-08-23T05:52:00.534Z,19.60
2018-08-23T05:54:28.655Z,19.70
2018-08-23T05:56:56.824Z,19.83
2018-08-23T05:59:24.978Z,19.95
2018-08-23T06:01:53.061Z,20.10
2018-08-23T06:04:32.437Z,20.19
2018-08-23T06:07:00.533Z,20.30
2018-08-23T06:09:28.602Z,20.42
2018-08-23T06:11:56.683Z,20.65
2018-08-23T06:14:24.770Z,20.75
2018-08-23T06:16:56.206Z,20.86
2018-08-23T06:19:24.624Z,21.02
2018-08-23T06:21:52.720Z,21.15
2018-08-23T06:24:20.809Z,21.25
2018-08-23T06:26:51.932Z,21.38
2018-08-23T06:29:22.227Z,21.56
2018-08-23T06:31:58.494Z,21.69
2018-08-23T06:34:27.877Z,21.90
2018-08-23T06:36:56.964Z,22.07
2018-08-23T06:39:25.064Z,22.24
2018-08-23T06:41:54.149Z,22.31
2018-08-23T06:44:22.586Z,22.27
2018-08-23T06:46:50.644Z,22.29
2018-08-23T06:49:18.730Z,22.42
2018-08-23T06:51:47.595Z,22.51
2018-08-23T06:54:15.723Z,22.61
2018-08-23T06:56:43.816Z,22.68
2018-08-23T06:59:11.997Z,22.77
2018-08-23T07:01:45.284Z,22.99
2018-08-23T07:04:14.234Z,23.14
2018-08-23T07:06:42.515Z,23.39
2018-08-23T07:09:16.578Z,23.54
2018-08-23T07:11:44.946Z,23.54
2018-08-23T07:14:14.404Z,23.58
2018-08-23T07:16:43.756Z,23.63
2018-08-23T07:19:25.902Z,23.56
2018-08-23T07:21:54.716Z,23.64
2018-08-23T07:24:40.169Z,23.73
2018-08-23T07:27:09.630Z,23.82
2018-08-23T07:29:37.700Z,23.90
2018-08-23T07:32:07.134Z,23.95
2018-08-23T07:34:35.729Z,24.15
2018-08-23T07:37:09.076Z,24.33
2018-08-23T07:39:37.160Z,24.42
2018-08-23T07:42:05.263Z,24.50
2018-08-23T07:44:33.335Z,24.68
2018-08-23T07:47:01.438Z,24.74
2018-08-23T07:49:29.510Z,24.84
2018-08-23T07:51:57.580Z,25.07
2018-08-23T07:54:25.653Z,25.11
2018-08-23T07:56:53.732Z,25.21
2018-08-23T07:59:21.850Z,25.30
2018-08-23T08:01:49.931Z,25.39
2018-08-23T08:04:17.994Z,25.51
2018-08-23T08:06:46.072Z,25.60
2018-08-23T08:09:14.182Z,25.65
2018-08-23T08:11:52.455Z,25.70
2018-08-23T08:14:25.822Z,25.82
2018-08-23T08:16:58.063Z,25.87
2018-08-23T08:19:26.280Z,26.02
2018-08-23T08:21:54.368Z,26.07
2018-08-23T08:24:22.423Z,26.17
2018-08-23T08:26:50.500Z,26.22
2018-08-23T08:29:23.849Z,26.30
2018-08-23T08:31:51.924Z,26.30
2018-08-23T08:34:20.414Z,26.34
2018-08-23T08:36:48.507Z,26.44
2018-08-23T08:39:16.579Z,26.59
2018-08-23T08:41:44.665Z,26.65
2018-08-23T08:44:12.782Z,26.86
2018-08-23T08:46:40.891Z,26.90
2018-08-23T08:49:08.962Z,27.07
2018-08-23T08:51:37.038Z,27.04
2018-08-23T08:54:05.107Z,27.22
2018-08-23T08:56:38.475Z,27.26
2018-08-23T08:59:06.514Z,27.40
2018-08-23T09:01:34.643Z,27.54
2018-08-23T09:04:02.757Z,27.82
2018-08-23T09:06:46.392Z,27.90
2018-08-23T09:09:34.623Z,27.65
2018-08-23T09:12:05.184Z,27.82
2018-08-23T09:14:33.549Z,27.78
2018-08-23T09:17:39.279Z,27.58
2018-08-23T09:20:09.460Z,27.47
2018-08-23T09:22:39.947Z,27.55
2018-08-23T09:25:11.036Z,27.70
2018-08-23T09:27:39.060Z,27.78
2018-08-23T09:30:11.483Z,27.86
2018-08-23T09:32:39.678Z,27.94
2018-08-23T09:35:07.811Z,27.99
2018-08-23T09:37:38.780Z,28.25
2018-08-23T09:40:07.612Z,28.36
2018-08-23T09:42:36.607Z,28.57
2018-08-23T09:45:09.163Z,28.76
2018-08-23T09:47:37.226Z,28.89
2018-08-23T09:50:05.818Z,29.14
2018-08-23T09:52:39.844Z,29.04
2018-08-23T09:55:09.195Z,28.98
2018-08-23T09:57:37.788Z,29.36
2018-08-23T10:00:10.422Z,29.38
2018-08-23T10:02:43.908Z,29.32
2018-08-23T10:05:17.251Z,29.00
2018-08-23T10:07:50.727Z,29.01
2018-08-23T10:10:24.217Z,28.95
2018-08-23T10:12:57.703Z,28.92
2018-08-23T10:15:31.210Z,28.86
2018-08-23T10:18:04.533Z,29.13
2018-08-23T10:20:42.660Z,29.33
2018-08-23T10:23:15.995Z,29.24
2018-08-23T10:25:45.420Z,29.15
2018-08-23T10:28:14.696Z,29.28
2018-08-23T10:30:43.509Z,29.47
2018-08-23T10:33:11.617Z,29.51
2018-08-23T10:35:43.884Z,29.43
2018-08-23T10:38:14.122Z,29.16
2018-08-23T10:40:42.661Z,29.10
2018-08-23T10:43:10.783Z,29.20
2018-08-23T10:45:38.882Z,28.96
2018-08-23T10:48:12.299Z,28.93
2018-08-23T10:50:40.469Z,28.67
2018-08-23T10:53:08.544Z,28.71
2018-08-23T10:55:36.661Z,29.01
2018-08-23T10:58:04.731Z,28.97
2018-08-23T11:00:32.839Z,29.08
2018-08-23T11:03:00.920Z,29.37
2018-08-23T11:05:29.075Z,29.62
2018-08-23T11:08:03.082Z,29.81
2018-08-23T11:10:36.570Z,29.90
2018-08-23T11:13:10.060Z,30.05
2018-08-23T11:15:38.160Z,30.20
2018-08-23T11:18:11.856Z,29.82
2018-08-23T11:20:49.039Z,29.88
2018-08-23T11:23:18.375Z,30.00
2018-08-23T11:25:46.595Z,30.18
2018-08-23T11:28:21.292Z,30.16
2018-08-23T11:30:49.788Z,30.08
2018-08-23T11:33:17.874Z,30.06
2018-08-23T11:35:45.959Z,30.07
2018-08-23T11:38:14.095Z,30.20
2018-08-23T11:40:42.273Z,30.30
2018-08-23T11:43:10.354Z,30.10
2018-08-23T11:45:38.437Z,30.12
2018-08-23T11:48:06.628Z,30.38
2018-08-23T11:50:34.773Z,30.33
2018-08-23T11:53:02.915Z,30.45
2018-08-23T11:55:30.965Z,30.58
2018-08-23T11:57:59.180Z,30.59
2018-08-23T12:00:27.206Z,30.74
2018-08-23T12:02:55.287Z,30.80
2018-08-23T12:05:23.371Z,30.89
2018-08-23T12:07:52.763Z,30.76
2018-08-23T12:10:21.965Z,30.98
2018-08-23T12:12:52.364Z,31.00
2018-08-23T12:15:25.015Z,31.15
2018-08-23T12:17:53.878Z,31.08
2018-08-23T12:20:21.994Z,31.05
2018-08-23T12:22:50.059Z,31.09
2018-08-23T12:25:18.172Z,31.09
2018-08-23T12:27:57.479Z,31.19
2018-08-23T12:30:25.592Z,31.30
2018-08-23T12:32:53.905Z,31.24
2018-08-23T12:35:22.127Z,31.16
2018-08-23T12:38:01.881Z,31.47
2018-08-23T12:40:36.092Z,31.21
2018-08-23T12:43:06.532Z,31.29
2018-08-23T12:45:38.706Z,31.31
2018-08-23T12:48:07.182Z,31.46
2018-08-23T12:50:35.992Z,31.63
2018-08-23T12:53:04.133Z,31.76
2018-08-23T12:55:32.302Z,31.87
2018-08-23T12:58:00.387Z,31.85
2018-08-23T13:00:28.602Z,31.79
2018-08-23T13:02:56.813Z,31.63
2018-08-23T13:05:24.864Z,31.56
2018-08-23T13:07:52.966Z,31.46
2018-08-23T13:10:21.070Z,31.62
2018-08-23T13:12:49.175Z,31.62
2018-08-23T13:15:17.288Z,31.75
2018-08-23T13:17:45.548Z,31.98
2018-08-23T13:20:13.696Z,32.05
2018-08-23T13:22:41.836Z,32.24
2018-08-23T13:25:12.511Z,32.20
2018-08-23T13:27:40.743Z,32.24
2018-08-23T13:30:08.710Z,32.15
2018-08-23T13:32:36.896Z,32.16
2018-08-23T13:35:05.105Z,32.06
2018-08-23T13:37:33.257Z,32.10
2018-08-23T13:40:01.380Z,32.32
2018-08-23T13:42:29.597Z,32.29
2018-08-23T13:44:57.734Z,32.38
2018-08-23T13:47:25.884Z,32.35
2018-08-23T13:49:53.967Z,32.36
2018-08-23T13:52:22.149Z,32.44
2018-08-23T13:54:50.356Z,32.56
2018-08-23T13:57:18.657Z,32.54
2018-08-23T13:59:46.955Z,32.45
2018-08-23T14:02:15.295Z,32.40
2018-08-23T14:04:43.428Z,32.54
2018-08-23T14:07:11.643Z,32.54
2018-08-23T14:09:39.740Z,32.47
2018-08-23T14:12:07.930Z,32.54
2018-08-23T14:14:36.008Z,32.67
2018-08-23T14:17:04.119Z,32.61
2018-08-23T14:19:32.207Z,32.63
2018-08-23T14:22:00.353Z,32.41
2018-08-23T14:24:28.419Z,32.54
2018-08-23T14:26:56.540Z,32.68
2018-08-23T14:29:24.631Z,32.59
2018-08-23T14:31:52.755Z,32.60
2018-08-23T14:34:20.819Z,32.74
2018-08-23T14:36:48.983Z,32.58
2018-08-23T14:39:17.058Z,32.50
2018-08-23T14:41:45.199Z,32.45
2018-08-23T14:44:13.300Z,32.51
2018-08-23T14:46:46.672Z,32.66
2018-08-23T14:49:20.234Z,32.64
2018-08-23T14:51:48.318Z,32.72
2018-08-23T14:54:21.751Z,32.59
2018-08-23T14:57:52.296Z,32.70
2018-08-23T15:00:20.389Z,32.61
2018-08-23T15:02:48.496Z,32.62
2018-08-23T15:05:16.615Z,32.59
2018-08-23T15:07:44.745Z,32.51
2018-08-23T15:10:12.789Z,32.56
2018-08-23T15:12:40.947Z,32.53
2018-08-23T15:15:09.554Z,32.48
2018-08-23T15:17:37.659Z,32.46
2018-08-23T15:20:06.047Z,32.55
2018-08-23T15:22:34.135Z,32.50
2018-08-23T15:25:02.236Z,32.65
2018-08-23T15:27:33.603Z,32.68
2018-08-23T15:30:02.700Z,32.58
2018-08-23T15:32:30.810Z,32.50
2018-08-23T15:34:58.882Z,32.33
2018-08-23T15:37:27.091Z,32.37
2018-08-23T15:39:55.162Z,32.32
2018-08-23T15:42:23.239Z,32.43
2018-08-23T15:44:51.315Z,32.57
2018-08-23T15:47:19.386Z,32.50
2018-08-23T15:49:47.463Z,32.42
2018-08-23T15:52:15.528Z,32.46
2018-08-23T15:54:43.608Z,32.50
2018-08-23T15:57:11.735Z,32.46
2018-08-23T15:59:39.799Z,32.42
2018-08-23T16:02:07.876Z,32.32
2018-08-23T16:04:35.937Z,32.31
2018-08-23T16:07:04.010Z,32.25
2018-08-23T16:09:32.072Z,32.24
2018-08-23T16:12:00.133Z,32.21
2018-08-23T16:14:28.211Z,32.26
2018-08-23T16:17:01.548Z,32.28
2018-08-23T16:19:34.977Z,32.36
2018-08-23T16:22:03.067Z,32.39
2018-08-23T16:24:31.136Z,32.34
2018-08-23T16:27:05.196Z,32.32
2018-08-23T16:29:33.273Z,32.12
2018-08-23T16:32:01.542Z,32.12
2018-08-23T16:34:29.576Z,32.23
2018-08-23T16:36:58.068Z,32.13
2018-08-23T16:39:26.344Z,31.99
2018-08-23T16:41:54.415Z,32.06
2018-08-23T16:44:22.497Z,32.04
2018-08-23T16:46:50.551Z,31.95
2018-08-23T16:49:18.631Z,31.88
2018-08-23T16:51:46.721Z,31.75
2018-08-23T16:54:14.840Z,31.62
2018-08-23T16:56:42.908Z,31.62
2018-08-23T16:59:10.995Z,31.60
2018-08-23T17:01:39.103Z,31.62
2018-08-23T17:04:07.174Z,31.53
2018-08-23T17:06:35.235Z,31.49
2018-08-23T17:09:03.808Z,31.46
2018-08-23T17:11:31.890Z,31.39
2018-08-23T17:13:59.988Z,31.19
2018-08-23T17:16:33.546Z,31.08
2018-08-23T17:19:01.665Z,31.02
2018-08-23T17:21:29.736Z,30.89
2018-08-23T17:23:57.916Z,30.87
2018-08-23T17:26:25.991Z,30.70
2018-08-23T17:28:54.050Z,30.41
2018-08-23T17:31:22.128Z,30.40
2018-08-23T17:33:50.200Z,30.33
2018-08-23T17:36:18.292Z,30.29
2018-08-23T17:38:46.374Z,30.25
2018-08-23T17:41:14.451Z,30.24
2018-08-23T17:43:42.524Z,30.15
2018-08-23T17:46:10.608Z,29.99
2018-08-23T17:48:38.687Z,29.86
2018-08-23T17:51:06.744Z,29.75
2018-08-23T17:53:34.856Z,29.70
2018-08-23T17:56:02.944Z,29.64
2018-08-23T17:58:31.008Z,29.73
2018-08-23T18:00:59.066Z,29.63
2018-08-23T18:03:27.195Z,29.54
2018-08-23T18:05:55.263Z,29.44
2018-08-23T18:08:23.331Z,29.41
2018-08-23T18:10:51.384Z,29.37
2018-08-23T18:13:19.653Z,29.30
2018-08-23T18:15:53.068Z,29.22
2018-08-23T18:18:21.604Z,29.07
2018-08-23T18:20:51.390Z,29.02
2018-08-23T18:23:19.941Z,28.91
2018-08-23T18:25:48.237Z,28.76
2018-08-23T18:28:17.190Z,28.66
2018-08-23T18:30:45.453Z,28.63
2018-08-23T18:33:14.275Z,28.52
2018-08-23T18:35:42.480Z,28.38
2018-08-23T18:38:10.725Z,28.30
2018-08-23T18:40:38.917Z,28.22
2018-08-23T18:43:09.405Z,28.14
2018-08-23T18:45:38.949Z,28.07
2018-08-23T18:48:07.400Z,27.97
2018-08-23T18:50:35.927Z,27.87
2018-08-23T18:53:04.252Z,28.03
2018-08-23T18:58:24.043Z,27.70
2018-08-23T19:00:54.484Z,27.51
2018-08-23T19:03:23.738Z,27.42
2018-08-23T19:05:52.751Z,27.21
2018-08-23T19:08:21.827Z,27.31
2018-08-23T19:11:02.037Z,26.96
2018-08-23T19:13:35.868Z,26.76
2018-08-23T19:16:12.680Z,26.38
2018-08-23T19:18:47.748Z,25.94
2018-08-23T19:21:16.622Z,25.69
2018-08-23T19:23:48.664Z,25.30
2018-08-23T19:26:19.614Z,24.75
2018-08-23T19:28:55.112Z,24.63
2018-08-23T19:31:28.289Z,24.44
2018-08-23T19:34:03.397Z,24.31
2018-08-23T19:36:35.930Z,24.42
2018-08-23T19:42:39.894Z,24.30
2018-08-23T19:45:12.893Z,24.39
2018-08-23T19:47:53.186Z,24.69
2018-08-23T19:50:26.790Z,24.66
2018-08-23T19:52:59.957Z,24.31
2018-08-23T19:55:37.427Z,24.33
2018-08-23T19:58:07.606Z,24.02
2018-08-23T20:00:39.168Z,24.06
2018-08-23T20:03:09.778Z,23.75
2018-08-23T20:05:42.107Z,23.74
2018-08-23T20:08:13.583Z,23.74
2018-08-23T20:10:44.080Z,23.73
2018-08-23T20:13:12.685Z,23.51
2018-08-23T20:15:42.129Z,23.60
2018-08-23T20:18:11.275Z,23.83
2018-08-23T20:20:50.139Z,23.75
2018-08-23T20:23:37.871Z,23.73
2018-08-23T20:26:10.465Z,23.75
2018-08-23T20:28:42.860Z,23.72
2018-08-23T20:31:17.438Z,23.54
2018-08-23T20:33:46.375Z,23.35
2018-08-23T20:36:15.657Z,23.37
2018-08-23T20:38:46.012Z,23.28
2018-08-23T20:41:15.469Z,23.23
2018-08-23T20:43:48.676Z,23.25
2018-08-23T20:46:19.908Z,23.23
2018-08-23T20:48:48.648Z,23.31
2018-08-23T20:51:19.038Z,23.27
2018-08-23T20:53:49.855Z,23.01
2018-08-23T20:56:18.100Z,22.88
2018-08-23T20:58:46.557Z,22.92
2018-08-23T21:01:14.697Z,23.00
2018-08-23T21:03:43.446Z,22.84
2018-08-23T21:06:11.977Z,22.79
2018-08-23T21:08:41.209Z,22.65
2018-08-23T21:11:09.822Z,22.43
2018-08-23T21:13:38.326Z,22.36
2018-08-23T21:16:07.313Z,22.44
2018-08-23T21:18:36.668Z,22.37
2018-08-23T21:21:09.331Z,22.59
2018-08-23T21:23:40.528Z,22.47
2018-08-23T21:26:14.649Z,22.51
2018-08-23T21:28:44.421Z,22.46
2018-08-23T21:31:13.645Z,22.58
2018-08-23T21:33:42.429Z,22.56
2018-08-23T21:36:11.546Z,22.58
2018-08-23T21:38:39.860Z,22.61
2018-08-23T21:41:08.018Z,22.48
2018-08-23T21:43:37.030Z,22.40
2018-08-23T21:46:05.450Z,22.46
2018-08-23T21:48:33.504Z,22.50
2018-08-23T21:51:01.617Z,22.44
2018-08-23T21:53:29.831Z,22.50
2018-08-23T21:55:57.975Z,22.60
2018-08-23T21:58:26.138Z,22.65
2018-08-23T22:00:54.418Z,22.76
2018-08-23T22:03:23.184Z,22.75
2018-08-23T22:05:51.778Z,22.74
2018-08-23T22:08:19.991Z,22.58
2018-08-23T22:10:48.171Z,22.56
2018-08-23T22:13:16.374Z,22.52
2018-08-23T22:15:46.315Z,22.52
2018-08-23T22:18:14.791Z,22.44
2018-08-23T22:20:43.232Z,22.52
2018-08-23T22:23:11.386Z,22.46
2018-08-23T22:25:40.146Z,22.47
2018-08-23T22:28:09.385Z,22.46
2018-08-23T22:30:38.350Z,22.57
2018-08-23T22:33:06.943Z,22.47
2018-08-23T22:35:35.126Z,22.51
2018-08-23T22:38:03.342Z,22.32
2018-08-23T22:40:32.510Z,22.29
2018-08-23T22:43:00.722Z,22.19
2018-08-23T22:45:29.025Z,22.17
2018-08-23T22:47:57.208Z,22.14
2018-08-23T22:50:25.348Z,22.17
2018-08-23T22:52:53.532Z,22.06
2018-08-23T22:55:21.764Z,21.98
2018-08-23T22:57:49.948Z,22.04
2018-08-23T23:00:18.609Z,22.11
2018-08-23T23:02:47.392Z,22.18
2018-08-23T23:05:15.761Z,22.08
2018-08-23T23:07:43.811Z,21.93
2018-08-23T23:10:12.223Z,21.82
2018-08-23T23:12:40.288Z,21.73
2018-08-23T23:15:13.587Z,21.72
2018-08-23T23:17:41.654Z,21.89
2018-08-23T23:20:09.728Z,21.80
2018-08-23T23:22:37.899Z,21.77
2018-08-23T23:25:06.044Z,21.75
2018-08-23T23:27:34.168Z,21.61
2018-08-23T23:30:02.322Z,21.60
2018-08-23T23:32:30.389Z,21.71
2018-08-23T23:34:58.443Z,21.63
2018-08-23T23:37:26.532Z,21.63
2018-08-23T23:39:54.591Z,21.54
2018-08-23T23:42:22.678Z,21.58
2018-08-23T23:44:50.754Z,21.53
2018-08-23T23:47:18.846Z,21.46
2018-08-23T23:49:46.917Z,21.50
2018-08-23T23:52:14.987Z,21.48
2018-08-23T23:54:43.046Z,21.53
2018-08-23T23:57:11.136Z,21.56
2018-08-23T23:59:39.345Z,21.45
